Aviation WX

[Source: ADDS]
METAR
KFKL 181056Z AUTO 24005KT 2 1/2SM -SN BR OVC004 M01/M02 A2994 RMK AO2 SLP157 P0000 T10111017 FZRANO =
KFKL 181126Z 1812/1912 23005KT 2SM -SN BR OVC004 FM181400 28006KT P6SM OVC006 FM181800 28007KT P6SM OVC012 FM190300 30004KT P6SM BKN025
TAF
KFKL 181126Z 1812/1912 23005KT 2SM -SN BR OVC004 FM181400 28006KT P6SM OVC006 FM181800 28007KT P6SM OVC012 FM190300 30004KT P6SM BKN025 =

Clarion Airport T-Shirts

small